Forside
METAR-TAF:

METAR-TAF

Lufthavne :

Kolkata, Indien

Breddekreds: 22-39N, længdekreds: 088-27E, højde: 4 m

Aktuelle vejr

Denne rapport blev lavet for 37 minutter siden, kl. 11:30 UTC
Vind 3 kt fra østsydøst
Temperatur 30°C
Fugtighed 66%
Tryk 1008 hPa
Sigt: 3800 m
Nogle få skyer i en højde af 2000 ft
tåge/dis

METAR: VECC 171130Z 12003KT 3800 HZ FEW020 30/23 Q1008 NOSIG

Tid: 17:37 (12:07 UTC)

Vejrudsigter

Denne rapport blev lavet for 1 time og 7 minutter siden, kl. 11:00 UTC
Foreløbig gælder fra 17 på 12 UTC til 18 på 18 UTC
Vind 5 kt fra syd
Sigt: 3200 m
Nogle få skyer i en højde af 2000 ft
tåge/dis
ændring
fra 17 på 18 UTC til 17 på 20 UTC
Vind kt fra nord
Sigt: 2000 m
dis
ændring
fra 18 på 02 UTC til 18 på 04 UTC
Vind 5 kt fra sydsydøst
Sigt: 3300 m
tåge/dis
ændring
fra 18 på 16 UTC til 18 på 18 UTC
Vind kt fra nord
Sigt: 2500 m
tåge/dis

TAF: VECC 171100Z 1712/1818 18005KT 3200 HZ FEW020 BECMG 1718/1720 00000KT 2000 BR BECMG 1802/1804 16005KT 3300 HZ BECMG 1816/1818 00000KT 2500 HZ

Vejrobservationer og prognoser fra mere end 4000 lufthavne (METAR og TAF).

De gule og røde prikker repræsenterer de meteorologiske stationer.

Flyt musen over at se navnet på stationen.

Så klik over at se vejr observationer og prognoser.

At skifte det kort: Klik på de grønne knapper med et sort kors for at zoome ind; på den grønne knap med en bindestreg for at zoome ud; eller på de grønne pile for tilstødende kort.


METAR-TAF: